Time;durP1;ratioP1;P1;durP2;ratioP2;P2;SDS_P1;SDS_P2;PMS_P1;PMS_P2;Temp;Humidity;BMP_temperature;BMP_pressure;BME280_temperature;BME280_humidity;BME280_pressure;Samples;Min_cycle;Max_cycle;Signal;HPM_P1;HPM_P2
2023/08/28 00:01:30;;;;;;;;;;;;;;;-144.99;100.00;52407.31;5023989;28;19948;-68
2023/08/28 00:03:56;;;;;;;;;;;;;;;-144.99;100.00;52415.47;5022934;28;19945;-67
2023/08/28 00:06:23;;;;;;;;;;;;;;;-144.99;100.00;52439.94;5021870;28;20308;-66
2023/08/28 00:08:49;;;;;;;;;;;;;;;-144.99;100.00;52386.94;5023810;28;19998;-65
2023/08/28 00:11:18;;;;;;;;;;;;;;;-144.99;100.00;52421.59;5019819;28;20057;-66
2023/08/28 00:13:44;;;;;;;;;;;;;;;-144.99;100.00;52386.94;5021984;28;20093;-65
2023/08/28 00:16:11;;;;;;;;;;;;;;;-144.99;100.00;52411.41;5024611;28;20059;-67
2023/08/28 00:18:37;;;;;;;;;;;;;;;-144.99;100.00;52378.78;5019099;28;20348;-70
2023/08/28 00:21:04;;;;;;;;;;;;;;;-144.99;100.00;52431.78;5025307;28;19942;-68
2023/08/28 00:23:32;;;;;;;;;;;;;;;-144.99;100.00;52407.31;5021601;28;20024;-67
2023/08/28 00:25:58;;;;;;;;;;;;;;;-144.99;100.00;52395.09;5024044;28;20379;-67
2023/08/28 00:28:26;;;;;;;;;;;;;;;-144.99;100.00;52433.81;5024984;28;19994;-67
2023/08/28 00:30:53;;;;;;;;;;;;;;;-144.99;100.00;52374.72;5025274;28;19955;-67
2023/08/28 00:33:19;;;;;;;;;;;;;;;-144.99;100.00;52395.09;5018050;28;19956;-67
2023/08/28 00:35:46;;;;;;;;;;;;;;;-144.99;100.00;52409.38;5020330;28;19995;-67
2023/08/28 00:38:13;;;;;;;;;;;;;;;-144.99;100.00;52378.78;5025055;28;19976;-66
2023/08/28 00:40:40;;;;;;;;;;;;;;;-144.99;100.00;52423.63;5025111;28;19941;-66
2023/08/28 00:43:06;;;;;;;;;;;;;;;-144.99;100.00;52444.03;5025440;28;20091;-65
2023/08/28 00:45:34;;;;;;;;;;;;;;;-144.99;100.00;52427.72;5021893;28;19993;-66
2023/08/28 00:48:01;;;;;;;;;;;;;;;-144.99;100.00;52386.94;5025594;28;20326;-65
2023/08/28 00:50:28;;;;;;;;;;;;;;;-144.99;100.00;52391.03;5021417;28;20051;-65
2023/08/28 00:52:55;;;;;;;;;;;;;;;-144.99;100.00;52403.25;5027258;28;19960;-66
2023/08/28 00:55:21;;;;;;;;;;;;;;;-144.99;100.00;52421.59;5025759;28;19946;-65
2023/08/28 00:57:48;;;;;;;;;;;;;;;-144.99;100.00;52444.03;5025034;28;19946;-66
2023/08/28 01:00:15;;;;;;;;;;;;;;;-144.99;100.00;52399.19;5017637;28;19945;-66
2023/08/28 01:02:43;;;;;;;;;;;;;;;-144.99;100.00;52399.19;5025574;28;19959;-66
2023/08/28 01:05:09;;;;;;;;;;;;;;;-144.99;100.00;52427.72;5024893;28;20043;-65
2023/08/28 01:07:40;;;;;;;;;;;;;;;-144.99;100.00;52386.94;5024228;28;20403;-65
2023/08/28 01:10:09;;;;;;;;;;;;;;;-144.99;100.00;52458.28;5020138;28;20072;-65
2023/08/28 01:12:41;;;;;;;;;;;;;;;-144.99;100.00;52403.25;5027564;28;19970;-65
2023/08/28 01:15:11;;;;;;;;;;;;;;;-144.99;100.00;52374.72;5026453;28;20025;-65
2023/08/28 01:17:39;;;;;;;;;;;;;;;-144.99;100.00;52407.31;5025199;28;19950;-66
2023/08/28 01:20:12;;;;;;;;;;;;;;;-144.99;100.00;52423.63;5022648;28;20026;-65
2023/08/28 01:22:41;;;;;;;;;;;;;;;-144.99;100.00;52425.66;5029905;28;20026;-66
2023/08/28 01:25:10;;;;;;;;;;;;;;;-144.99;100.00;52403.25;5030783;28;19943;-66
2023/08/28 01:27:37;;;;;;;;;;;;;;;-144.99;100.00;52380.84;5026967;28;20267;-66
2023/08/28 01:30:10;;;;;;;;;;;;;;;-144.99;100.00;52382.88;5030612;28;20220;-65
2023/08/28 01:32:37;;;;;;;;;;;;;;;-144.99;100.00;52480.72;5028526;28;19967;-66
2023/08/28 01:35:06;;;;;;;;;;;;;;;-144.99;100.00;52395.09;5030667;28;19974;-66
2023/08/28 01:37:37;;;;;;;;;;;;;;;-144.99;100.00;52488.84;5030611;28;20336;-66
2023/08/28 01:40:05;;;;;;;;;;;;;;;-144.99;100.00;52395.09;5030197;28;20739;-66
2023/08/28 01:42:33;;;;;;;;;;;;;;;-144.99;100.00;52411.41;5016180;28;19960;-63
2023/08/28 01:45:00;;;;;;;;;;;;;;;-144.99;100.00;52407.31;5025787;28;19949;-63
2023/08/28 01:47:27;;;;;;;;;;;;;;;-144.99;100.00;52411.41;5028465;28;20397;-63
2023/08/28 01:49:54;;;;;;;;;;;;;;;-144.99;100.00;52407.31;5027752;28;20410;-63
2023/08/28 01:52:21;;;;;;;;;;;;;;;-144.99;100.00;52382.88;5024093;28;19958;-63
2023/08/28 01:54:47;;;;;;;;;;;;;;;-144.99;100.00;52403.25;5025492;28;20040;-63
2023/08/28 01:57:14;;;;;;;;;;;;;;;-144.99;100.00;52352.28;5026533;28;20036;-63
2023/08/28 01:59:42;;;;;;;;;;;;;;;-144.99;100.00;52386.94;5024595;28;19995;-63
2023/08/28 02:02:08;;;;;;;;;;;;;;;-144.99;100.00;52415.47;5028180;28;20065;-63
2023/08/28 02:04:34;;;;;;;;;;;;;;;-144.99;100.00;52397.13;5027342;28;20422;-64
2023/08/28 02:07:01;;;;;;;;;;;;;;;-144.99;100.00;52409.38;5027021;28;19965;-66
2023/08/28 02:09:27;;;;;;;;;;;;;;;-144.99;100.00;52419.56;5022269;28;19992;-66
2023/08/28 02:11:54;;;;;;;;;;;;;;;-144.99;100.00;52468.47;5026681;28;20175;-66
2023/08/28 02:14:20;;;;;;;;;;;;;;;-144.99;100.00;52419.56;5026233;28;20373;-65
2023/08/28 02:16:48;;;;;;;;;;;;;;;-144.99;100.00;52382.88;5025913;28;19940;-65
2023/08/28 02:19:15;;;;;;;;;;;;;;;-144.99;100.00;52403.25;5026959;28;20348;-65
2023/08/28 02:21:41;;;;;;;;;;;;;;;-144.99;100.00;52386.94;5022760;28;19939;-66
2023/08/28 02:24:08;;;;;;;;;;;;;;;-144.99;100.00;52399.19;4676834;28;10000434;-66
2023/08/28 02:26:34;;;;;;;;;;;;;;;-144.99;100.00;52429.75;5022956;28;19941;-66
2023/08/28 02:29:01;;;;;;;;;;;;;;;-144.99;100.00;52399.19;5026610;28;20401;-66
2023/08/28 02:31:27;;;;;;;;;;;;;;;-144.99;100.00;52374.72;5025438;28;20442;-66
2023/08/28 02:33:54;;;;;;;;;;;;;;;-144.99;100.00;52382.88;5028009;28;20056;-66
2023/08/28 02:36:21;;;;;;;;;;;;;;;-144.99;100.00;52417.53;5028736;28;20386;-66
2023/08/28 02:38:47;;;;;;;;;;;;;;;-144.99;100.00;52423.63;5025566;28;20049;-64
2023/08/28 02:41:14;;;;;;;;;;;;;;;-144.99;100.00;52403.25;5030203;28;20034;-70
2023/08/28 02:43:41;;;;;;;;;;;;;;;-144.99;100.00;52399.19;5029732;28;20293;-65
2023/08/28 02:46:07;;;;;;;;;;;;;;;-144.99;100.00;52401.22;5029817;28;19942;-64
2023/08/28 02:48:34;;;;;;;;;;;;;;;-144.99;100.00;52378.78;5028409;28;19940;-64
2023/08/28 02:51:02;;;;;;;;;;;;;;;-144.99;100.00;52419.56;5029055;28;19992;-62
2023/08/28 02:53:28;;;;;;;;;;;;;;;-144.99;100.00;52384.91;5029754;28;19959;-68
2023/08/28 02:56:10;;;;;;;;;;;;;;;-144.99;100.00;52409.38;5030114;28;19995;-68
2023/08/28 02:58:37;;;;;;;;;;;;;;;-144.99;100.00;52415.47;5028662;28;19999;-67
2023/08/28 03:01:04;;;;;;;;;;;;;;;-144.99;100.00;52388.97;5028616;28;19996;-67
2023/08/28 03:03:33;;;;;;;;;;;;;;;-144.99;100.00;52395.09;5029330;28;19953;-67
2023/08/28 03:06:02;;;;;;;;;;;;;;;-144.99;100.00;52407.31;5029546;28;20028;-63
2023/08/28 03:08:29;;;;;;;;;;;;;;;-144.99;100.00;52452.16;5029063;28;20045;-62
2023/08/28 03:10:55;;;;;;;;;;;;;;;-144.99;100.00;52403.25;5027689;28;20195;-62
2023/08/28 03:13:22;;;;;;;;;;;;;;;-144.99;100.00;52382.88;5028985;28;19996;-71
2023/08/28 03:15:48;;;;;;;;;;;;;;;-144.99;100.00;52350.25;5030005;28;19942;-72
2023/08/28 03:18:14;;;;;;;;;;;;;;;-144.99;100.00;52417.53;5029977;28;19943;-69
2023/08/28 03:20:42;;;;;;;;;;;;;;;-144.99;100.00;52391.03;5026205;28;19973;-69
2023/08/28 03:23:10;;;;;;;;;;;;;;;-144.99;100.00;52419.56;5026273;28;20010;-63
2023/08/28 03:25:36;;;;;;;;;;;;;;;-144.99;100.00;52391.03;5029035;28;19947;-63
2023/08/28 03:28:07;;;;;;;;;;;;;;;-144.99;100.00;52401.22;5029700;28;20371;-63
2023/08/28 03:30:33;;;;;;;;;;;;;;;-144.99;100.00;52419.56;5028296;28;19962;-69
2023/08/28 03:33:00;;;;;;;;;;;;;;;-144.99;100.00;52431.78;5029691;28;19958;-69
2023/08/28 03:35:26;;;;;;;;;;;;;;;-144.99;100.00;52395.09;5029171;28;20471;-68
2023/08/28 03:37:53;;;;;;;;;;;;;;;-144.99;100.00;52346.19;5028597;28;20027;-63
2023/08/28 03:40:20;;;;;;;;;;;;;;;-144.99;100.00;52391.03;5028609;28;19972;-63
2023/08/28 03:42:47;;;;;;;;;;;;;;;-144.99;100.00;52419.56;5028796;28;19960;-64
2023/08/28 03:45:13;;;;;;;;;;;;;;;-144.99;100.00;52421.59;5028718;28;19997;-65
2023/08/28 03:47:40;;;;;;;;;;;;;;;-144.99;100.00;52427.72;5027463;28;19982;-64
2023/08/28 03:50:07;;;;;;;;;;;;;;;-144.99;100.00;52439.94;5027706;28;20440;-64
2023/08/28 03:52:33;;;;;;;;;;;;;;;-144.99;100.00;52427.72;5023144;28;20002;-64
2023/08/28 03:55:00;;;;;;;;;;;;;;;-144.99;100.00;52435.88;5025670;28;20432;-64
2023/08/28 03:57:27;;;;;;;;;;;;;;;-144.99;100.00;52386.94;5026243;28;20040;-64
2023/08/28 03:59:54;;;;;;;;;;;;;;;-144.99;100.00;52382.88;5022600;28;19979;-63
2023/08/28 04:02:20;;;;;;;;;;;;;;;-144.99;100.00;52439.94;5028241;28;19959;-66
2023/08/28 04:04:47;;;;;;;;;;;;;;;-144.99;100.00;52407.31;5027361;28;20369;-67
2023/08/28 04:07:22;;;;;;;;;;;;;;;-144.99;100.00;52391.03;5025788;28;20014;-66
2023/08/28 04:09:48;;;;;;;;;;;;;;;-144.99;100.00;52399.19;5025066;28;20024;-67
2023/08/28 04:12:15;;;;;;;;;;;;;;;-144.99;100.00;52382.88;5025485;28;19989;-66
2023/08/28 04:14:43;;;;;;;;;;;;;;;-144.99;100.00;52407.31;5028251;28;20301;-65
2023/08/28 04:17:09;;;;;;;;;;;;;;;-144.99;100.00;52386.94;5028259;28;19952;-65
2023/08/28 04:19:36;;;;;;;;;;;;;;;-144.99;100.00;52403.25;5026475;28;20040;-66
2023/08/28 04:22:03;;;;;;;;;;;;;;;-144.99;100.00;52399.19;5026582;28;19960;-65
2023/08/28 04:24:30;;;;;;;;;;;;;;;-144.99;100.00;52388.97;5027439;28;20204;-65
2023/08/28 04:26:56;;;;;;;;;;;;;;;-144.99;100.00;52417.53;5028542;28;19993;-67
2023/08/28 04:29:23;;;;;;;;;;;;;;;-144.99;100.00;52431.78;5023020;28;20007;-68
2023/08/28 04:31:52;;;;;;;;;;;;;;;-144.99;100.00;52407.31;5027642;28;19955;-68
2023/08/28 04:34:18;;;;;;;;;;;;;;;-144.99;100.00;52395.09;5025687;28;19948;-67
2023/08/28 04:36:45;;;;;;;;;;;;;;;-144.99;100.00;52380.84;5028657;28;20000;-67
2023/08/28 04:39:12;;;;;;;;;;;;;;;-144.99;100.00;52427.72;5026754;28;20027;-67
2023/08/28 04:41:38;;;;;;;;;;;;;;;-144.99;100.00;52431.78;5026923;28;19987;-67
2023/08/28 04:44:05;;;;;;;;;;;;;;;-144.99;100.00;52386.94;5031467;28;20347;-67
2023/08/28 04:46:31;;;;;;;;;;;;;;;-144.99;100.00;52423.63;5035342;28;19981;-67
2023/08/28 04:48:59;;;;;;;;;;;;;;;-144.99;100.00;52419.56;5028048;28;20450;-67
2023/08/28 04:51:26;;;;;;;;;;;;;;;-144.99;100.00;52378.78;5026433;28;20367;-68
2023/08/28 04:53:52;;;;;;;;;;;;;;;-144.99;100.00;52407.31;5027724;28;19984;-68
2023/08/28 04:56:19;;;;;;;;;;;;;;;-144.99;100.00;52407.31;5026905;28;20050;-67
2023/08/28 04:58:45;;;;;;;;;;;;;;;-144.99;100.00;52399.19;5023639;28;20552;-64
2023/08/28 05:01:11;;;;;;;;;;;;;;;-144.99;100.00;52417.53;5026145;28;19940;-69
2023/08/28 05:03:38;;;;;;;;;;;;;;;-144.99;100.00;52395.09;5027538;28;20421;-68
2023/08/28 05:06:06;;;;;;;;;;;;;;;-144.99;100.00;52382.88;5027681;28;19947;-68
2023/08/28 05:08:32;;;;;;;;;;;;;;;-144.99;100.00;52444.03;5027711;28;19942;-68
2023/08/28 05:11:00;;;;;;;;;;;;;;;-144.99;100.00;52397.13;5029471;28;20019;-69
2023/08/28 05:13:26;;;;;;;;;;;;;;;-144.99;100.00;52435.88;5034892;28;20439;-69
2023/08/28 05:15:53;;;;;;;;;;;;;;;-144.99;100.00;52407.31;5032022;28;19941;-69
2023/08/28 05:18:19;;;;;;;;;;;;;;;-144.99;100.00;52415.47;4336056;28;10000712;-69
2023/08/28 05:20:46;;;;;;;;;;;;;;;-144.99;100.00;52419.56;5031182;28;19948;-69
2023/08/28 05:23:14;;;;;;;;;;;;;;;-144.99;100.00;52421.59;5033474;28;19961;-70
2023/08/28 05:25:40;;;;;;;;;;;;;;;-144.99;100.00;52382.88;5039213;28;19942;-70
2023/08/28 05:28:07;;;;;;;;;;;;;;;-144.99;100.00;52423.63;5031741;28;20036;-70
2023/08/28 05:30:33;;;;;;;;;;;;;;;-144.99;100.00;52391.03;5031275;28;20191;-69
2023/08/28 05:33:00;;;;;;;;;;;;;;;-144.99;100.00;52423.63;5034360;28;20018;-70
2023/08/28 05:35:26;;;;;;;;;;;;;;;-144.99;100.00;52427.72;5031701;28;20056;-70
2023/08/28 05:37:53;;;;;;;;;;;;;;;-144.99;100.00;52358.41;5024767;28;19942;-69
2023/08/28 05:40:21;;;;;;;;;;;;;;;-144.99;100.00;52419.56;5021793;28;20015;-69
2023/08/28 05:42:48;;;;;;;;;;;;;;;-144.99;100.00;52411.41;5020288;28;20076;-69
2023/08/28 05:45:14;;;;;;;;;;;;;;;-144.99;100.00;52362.50;5023508;28;19944;-70
2023/08/28 05:47:41;;;;;;;;;;;;;;;-144.99;100.00;52395.09;5032601;28;19995;-69
2023/08/28 05:50:08;;;;;;;;;;;;;;;-144.99;100.00;52386.94;5032649;28;19947;-69
2023/08/28 05:52:36;;;;;;;;;;;;;;;-144.99;100.00;52366.56;5028507;28;20374;-69
2023/08/28 05:55:03;;;;;;;;;;;;;;;-144.99;100.00;52395.09;5031602;28;19943;-69
2023/08/28 05:57:31;;;;;;;;;;;;;;;-144.99;100.00;52407.31;5024418;28;19941;-69
2023/08/28 05:59:58;;;;;;;;;;;;;;;-144.99;100.00;52391.03;5031629;28;20054;-69
2023/08/28 06:02:24;;;;;;;;;;;;;;;-144.99;100.00;52376.75;4701166;28;10000287;-68
2023/08/28 06:04:52;;;;;;;;;;;;;;;-144.99;100.00;52393.06;5030167;28;19953;-69
2023/08/28 06:07:18;;;;;;;;;;;;;;;-144.99;100.00;52362.50;5024391;28;20451;-66
2023/08/28 06:09:45;;;;;;;;;;;;;;;-144.99;100.00;52407.31;5027440;28;20010;-66
2023/08/28 06:12:11;;;;;;;;;;;;;;;-144.99;100.00;52370.63;5027505;28;19995;-66
2023/08/28 06:14:39;;;;;;;;;;;;;;;-144.99;100.00;52374.72;5026637;28;19965;-66
2023/08/28 06:17:07;;;;;;;;;;;;;;;-144.99;100.00;52382.88;5026649;28;19947;-66
2023/08/28 06:19:33;;;;;;;;;;;;;;;-144.99;100.00;52366.56;5025760;28;19941;-71
2023/08/28 06:22:09;;;;;;;;;;;;;;;-144.99;100.00;52376.75;5005718;28;9999905;-71
2023/08/28 06:24:36;;;;;;;;;;;;;;;-144.99;100.00;52354.34;5030776;28;19951;-68
2023/08/28 06:27:02;;;;;;;;;;;;;;;-144.99;100.00;52356.38;5031907;28;19985;-72
2023/08/28 06:29:29;;;;;;;;;;;;;;;-144.99;100.00;52329.88;5026777;28;20029;-71
2023/08/28 06:31:57;;;;;;;;;;;;;;;-144.99;100.00;52370.63;5025600;28;20373;-70
2023/08/28 06:34:24;;;;;;;;;;;;;;;-144.99;100.00;52403.25;5026247;28;19942;-70
2023/08/28 06:36:51;;;;;;;;;;;;;;;-144.99;100.00;52354.34;5027015;28;20364;-70
2023/08/28 06:39:18;;;;;;;;;;;;;;;-144.99;100.00;52350.25;5038643;28;19942;-71
2023/08/28 06:41:44;;;;;;;;;;;;;;;-144.99;100.00;52338.03;5049001;28;19932;-71
2023/08/28 06:44:11;;;;;;;;;;;;;;;-144.99;100.00;52340.06;5028182;28;20023;-70
2023/08/28 06:46:38;;;;;;;;;;;;;;;-144.99;100.00;52354.34;5024780;28;19939;-70
2023/08/28 06:49:06;;;;;;;;;;;;;;;-144.99;100.00;52338.03;5027939;28;19945;-70
2023/08/28 06:51:32;;;;;;;;;;;;;;;-144.99;100.00;52323.75;5027800;28;20011;-70
2023/08/28 06:53:59;;;;;;;;;;;;;;;-144.99;100.00;52382.88;5024286;28;19947;-70
2023/08/28 06:56:25;;;;;;;;;;;;;;;-144.99;100.00;52295.22;5025812;28;19938;-70
2023/08/28 06:58:52;;;;;;;;;;;;;;;-144.99;100.00;52358.41;5021250;28;20341;-69
2023/08/28 07:01:18;;;;;;;;;;;;;;;-144.99;100.00;52362.50;5030823;28;20015;-70
2023/08/28 07:03:45;;;;;;;;;;;;;;;-144.99;100.00;52360.44;5030958;28;19967;-70
2023/08/28 07:06:13;;;;;;;;;;;;;;;-144.99;100.00;52311.53;5027999;28;19953;-70
2023/08/28 07:08:40;;;;;;;;;;;;;;;-144.99;100.00;52325.81;5028975;28;19943;-70
2023/08/28 07:11:06;;;;;;;;;;;;;;;-144.99;100.00;52364.53;4679802;28;10000242;-70
2023/08/28 07:13:33;;;;;;;;;;;;;;;-144.99;99.77;52309.50;5027741;28;20120;-71
2023/08/28 07:16:01;;;;;;;;;;;;;;;-144.99;99.70;52325.81;5027608;28;20010;-70
2023/08/28 07:18:27;;;;;;;;;;;;;;;-144.99;99.00;52325.81;5039185;28;19937;-72
2023/08/28 07:20:54;;;;;;;;;;;;;;;-144.99;98.45;52313.56;5041552;28;19944;-70
2023/08/28 07:23:22;;;;;;;;;;;;;;;-144.99;97.84;52329.88;5027069;28;20005;-70
2023/08/28 07:25:48;;;;;;;;;;;;;;;-144.99;98.17;52358.41;5026470;28;20001;-70
2023/08/28 07:28:15;;;;;;;;;;;;;;;-144.99;98.33;52346.19;5024336;28;19937;-71
2023/08/28 07:30:42;;;;;;;;;;;;;;;-144.99;97.44;52321.72;5026445;28;19942;-70
2023/08/28 07:33:09;;;;;;;;;;;;;;;-144.99;97.03;52325.81;5026743;28;19973;-70
2023/08/28 07:35:36;;;;;;;;;;;;;;;-144.99;95.70;52342.09;5025863;28;19969;-70
2023/08/28 07:38:03;;;;;;;;;;;;;;;-144.99;94.99;52325.81;5027443;28;20027;-71
2023/08/28 07:40:31;;;;;;;;;;;;;;;-144.99;94.06;52276.88;5023000;28;19943;-69
2023/08/28 07:42:58;;;;;;;;;;;;;;;-144.99;94.32;52329.88;5027473;28;20046;-70
2023/08/28 07:45:25;;;;;;;;;;;;;;;-144.99;93.52;52313.56;5026259;28;19939;-70
2023/08/28 07:47:51;;;;;;;;;;;;;;;-144.99;93.24;52333.94;5022346;28;19941;-70
2023/08/28 07:50:18;;;;;;;;;;;;;;;-144.99;92.70;52305.41;5020608;28;19944;-71
2023/08/28 07:52:44;;;;;;;;;;;;;;;-144.99;91.55;52280.97;5021300;28;19962;-70
2023/08/28 07:55:11;;;;;;;;;;;;;;;-144.99;89.93;52285.03;5027162;28;19943;-70
2023/08/28 07:57:39;;;;;;;;;;;;;;;-144.99;90.02;52331.91;5039417;28;19966;-73
2023/08/28 08:00:07;;;;;;;;;;;;;;;-144.99;89.63;52295.22;5036185;28;20037;-71
2023/08/28 08:02:34;;;;;;;;;;;;;;;-144.99;89.58;52311.53;5023750;28;20356;-71
2023/08/28 08:05:00;;;;;;;;;;;;;;;-144.99;89.69;52303.38;5020857;28;19969;-71
2023/08/28 08:07:27;;;;;;;;;;;;;;;-144.99;89.37;52301.34;5020586;28;19985;-71
2023/08/28 08:09:53;;;;;;;;;;;;;;;-144.99;88.73;52293.19;5017991;28;20374;-71
2023/08/28 08:12:20;;;;;;;;;;;;;;;-144.99;88.23;52285.03;5021992;28;19999;-71
2023/08/28 08:14:48;;;;;;;;;;;;;;;-144.99;89.39;52342.09;5025768;28;20033;-71
2023/08/28 08:17:14;;;;;;;;;;;;;;;-144.99;89.78;52362.50;5028971;28;19947;-71
2023/08/28 08:19:41;;;;;;;;;;;;;;;-144.99;89.56;52331.91;5025856;28;20007;-71
2023/08/28 08:22:07;;;;;;;;;;;;;;;-144.99;89.80;52336.00;5024012;28;20279;-70
2023/08/28 08:24:33;;;;;;;;;;;;;;;-144.99;89.18;52289.13;5024987;28;20003;-71
2023/08/28 08:27:00;;;;;;;;;;;;;;;-144.99;89.17;52291.16;5023479;28;20042;-71
2023/08/28 08:29:27;;;;;;;;;;;;;;;-144.99;88.16;52313.56;5024103;28;20025;-71
2023/08/28 08:31:56;;;;;;;;;;;;;;;-144.99;86.23;52321.72;5023284;28;20361;-71
2023/08/28 08:34:22;;;;;;;;;;;;;;;-144.99;86.07;52285.03;5024154;28;19947;-71
2023/08/28 08:36:49;;;;;;;;;;;;;;;-144.99;86.47;52285.03;5047139;28;19935;-73
2023/08/28 08:39:15;;;;;;;;;;;;;;;-144.99;86.17;52305.41;5037859;28;20427;-71
2023/08/28 08:41:42;;;;;;;;;;;;;;;-144.99;86.28;52333.94;5022922;28;19957;-73
2023/08/28 08:44:09;;;;;;;;;;;;;;;-144.99;85.50;52285.03;5023621;28;19955;-72
2023/08/28 08:46:35;;;;;;;;;;;;;;;-144.99;85.37;52336.00;5024202;28;19986;-71
2023/08/28 08:49:04;;;;;;;;;;;;;;;-144.99;84.93;52276.88;5024475;28;20346;-71
2023/08/28 08:51:31;;;;;;;;;;;;;;;-144.99;84.10;52301.34;5025392;28;20338;-71
2023/08/28 08:54:00;;;;;;;;;;;;;;;-144.99;83.01;52272.81;5025473;28;19944;-71
2023/08/28 08:56:28;;;;;;;;;;;;;;;-144.99;84.13;52329.88;5021258;28;20493;-72
2023/08/28 08:58:54;;;;;;;;;;;;;;;-144.99;83.41;52297.25;5021991;28;19945;-71
2023/08/28 09:01:21;;;;;;;;;;;;;;;-144.99;84.64;52280.97;5025063;28;19992;-71
2023/08/28 09:03:48;;;;;;;;;;;;;;;-144.99;84.45;52301.34;5022405;28;20012;-72
2023/08/28 09:06:16;;;;;;;;;;;;;;;-144.99;85.88;52333.94;5023799;28;20044;-73
2023/08/28 09:08:43;;;;;;;;;;;;;;;-144.99;86.16;52301.34;5017013;28;20467;-73
2023/08/28 09:11:09;;;;;;;;;;;;;;;-144.99;86.81;52313.56;5020443;28;20333;-72
2023/08/28 09:13:36;;;;;;;;;;;;;;;-144.99;88.20;52309.50;5011335;28;19964;-71
2023/08/28 09:16:03;;;;;;;;;;;;;;;-144.99;88.63;52323.75;5027389;28;20068;-72
2023/08/28 09:18:30;;;;;;;;;;;;;;;-144.99;88.11;52329.88;5023505;28;19960;-71
2023/08/28 09:21:07;;;;;;;;;;;;;;;-144.99;87.92;52350.25;5022229;28;20419;-72
2023/08/28 09:23:35;;;;;;;;;;;;;;;-144.99;87.70;52313.56;5021580;28;19968;-72
2023/08/28 09:26:04;;;;;;;;;;;;;;;-144.99;87.64;52336.00;5023908;28;20360;-72
2023/08/28 09:28:30;;;;;;;;;;;;;;;-144.99;87.89;52352.28;5025149;28;20001;-72
2023/08/28 09:30:57;;;;;;;;;;;;;;;-144.99;88.60;52315.59;5027809;28;20224;-71
2023/08/28 09:33:23;;;;;;;;;;;;;;;-144.99;89.48;52333.94;5032321;28;20046;-72
2023/08/28 09:35:49;;;;;;;;;;;;;;;-144.99;89.34;52338.03;5020109;28;19991;-72
2023/08/28 09:38:16;;;;;;;;;;;;;;;-144.99;89.12;52317.66;5029158;28;19986;-71
2023/08/28 09:40:45;;;;;;;;;;;;;;;-144.99;87.77;52260.56;5029455;28;19975;-71
2023/08/28 09:43:12;;;;;;;;;;;;;;;-144.99;83.31;52254.47;5028205;28;19958;-73
2023/08/28 09:45:39;;;;;;;;;;;;;;;-144.99;80.14;52244.28;5027613;28;20062;-72
2023/08/28 09:48:06;;;;;;;;;;;;;;;-144.99;78.78;52289.13;5029049;28;19995;-73
2023/08/28 09:50:34;;;;;;;;;;;;;;;-144.99;79.85;52236.13;5029020;28;20035;-73
2023/08/28 09:53:10;;;;;;;;;;;;;;;-144.99;78.47;52236.13;5028736;28;20059;-73
2023/08/28 09:55:40;;;;;;;;;;;;;;;-144.99;78.67;52236.13;5024859;28;19978;-74
2023/08/28 09:58:10;;;;;;;;;;;;;;;-144.99;75.67;52219.81;5040629;28;19970;-75
2023/08/28 10:00:38;;;;;;;;;;;;;;;-144.99;75.68;52199.44;5038615;28;19943;-73
2023/08/28 10:03:05;;;;;;;;;;;;;;;-144.99;72.58;52205.53;5029743;28;19969;-74
2023/08/28 10:05:31;;;;;;;;;;;;;;;-144.99;71.92;52187.19;5026369;28;19943;-73
2023/08/28 10:08:02;;;;;;;;;;;;;;;-144.99;70.61;52223.88;5029103;28;20033;-72
2023/08/28 10:10:29;;;;;;;;;;;;;;;-144.99;70.42;52181.09;5027642;28;19942;-72
2023/08/28 10:12:56;;;;;;;;;;;;;;;-144.99;69.52;52227.97;5028900;28;19964;-72
2023/08/28 10:15:24;;;;;;;;;;;;;;;-144.99;70.83;52289.13;5020876;28;20328;-72
2023/08/28 10:17:52;;;;;;;;;;;;;;;-144.99;71.94;52297.25;5021308;28;20052;-72
2023/08/28 10:20:20;;;;;;;;;;;;;;;-144.99;73.33;52268.72;5022174;28;20412;-72
2023/08/28 10:22:47;;;;;;;;;;;;;;;-144.99;77.08;52293.19;5019122;28;20077;-72
2023/08/28 10:25:14;;;;;;;;;;;;;;;-144.99;87.75;52362.50;5027325;28;19949;-74
2023/08/28 10:27:41;;;;;;;;;;;;;;;-144.99;93.68;52368.59;5022803;28;19945;-72
2023/08/28 10:30:09;;;;;;;;;;;;;;;-144.99;95.66;52366.56;5026857;28;20406;-72
2023/08/28 10:32:37;;;;;;;;;;;;;;;-144.99;98.89;52391.03;5025933;28;19967;-72
2023/08/28 10:35:03;;;;;;;;;;;;;;;-144.99;98.87;52382.88;5024030;28;20028;-72
2023/08/28 10:37:31;;;;;;;;;;;;;;;-144.99;100.00;52423.63;5022681;28;19947;-72
2023/08/28 10:39:58;;;;;;;;;;;;;;;-144.99;100.00;52437.91;5043479;28;19936;-75
2023/08/28 10:42:26;;;;;;;;;;;;;;;-144.99;100.00;52399.19;5033037;28;20033;-72
2023/08/28 10:44:53;;;;;;;;;;;;;;;-144.99;100.00;52362.50;5024317;28;19948;-72
2023/08/28 10:47:20;;;;;;;;;;;;;;;-144.99;100.00;52346.19;5025791;28;19978;-72
2023/08/28 10:49:48;;;;;;;;;;;;;;;-144.99;100.00;52362.50;5029051;28;19960;-72
2023/08/28 10:52:19;;;;;;;;;;;;;;;-144.99;100.00;52350.25;5032360;28;20051;-72
2023/08/28 10:54:46;;;;;;;;;;;;;;;-144.99;100.00;52366.56;5027907;28;19951;-72
2023/08/28 10:57:21;;;;;;;;;;;;;;;-144.99;100.00;52325.81;5021211;28;19950;-72
2023/08/28 10:59:49;;;;;;;;;;;;;;;-144.99;100.00;52219.81;5028331;28;19945;-71
2023/08/28 11:02:15;;;;;;;;;;;;;;;-144.99;100.00;52187.19;5027977;28;19957;-71
2023/08/28 11:04:42;;;;;;;;;;;;;;;-144.99;93.34;52150.53;5027650;28;19985;-71
2023/08/28 11:07:24;;;;;;;;;;;;;;;-144.99;84.67;52138.28;5025675;28;20575;-72
2023/08/28 11:09:51;;;;;;;;;;;;;;;-144.99;78.78;52117.91;5028315;28;19952;-72
2023/08/28 11:12:42;;;;;;;;;;;;;;;-144.99;73.93;52109.75;5021241;28;20052;-72
2023/08/28 11:15:09;;;;;;;;;;;;;;;-144.99;73.88;52073.06;5020323;28;19992;-73
2023/08/28 11:17:35;;;;;;;;;;;;;;;-144.99;72.05;52103.66;5021548;28;20092;-73
2023/08/28 11:20:07;;;;;;;;;;;;;;;-144.99;70.12;52069.00;5042704;28;19978;-77
2023/08/28 11:22:34;;;;;;;;;;;;;;;-144.99;67.33;52089.38;5041782;28;19971;-72
2023/08/28 11:25:04;;;;;;;;;;;;;;;-144.99;68.26;52087.34;5027167;28;20037;-72
2023/08/28 11:27:34;;;;;;;;;;;;;;;-144.99;67.95;52064.91;5027201;28;19950;-72
2023/08/28 11:30:04;;;;;;;;;;;;;;;-144.99;67.03;52044.53;5030882;28;19953;-73
2023/08/28 11:32:31;;;;;;;;;;;;;;;-144.99;66.39;52199.44;5026399;28;20410;-73
2023/08/28 11:34:59;;;;;;;;;;;;;;;-144.99;66.13;52232.03;5026705;28;20016;-74
2023/08/28 11:37:32;;;;;;;;;;;;;;;-144.99;66.81;52215.75;5023679;28;20376;-73
2023/08/28 11:39:59;;;;;;;;;;;;;;;-144.99;68.11;52244.28;5020468;28;19991;-75
2023/08/28 11:42:28;;;;;;;;;;;;;;;-144.99;68.86;52319.69;5027633;28;19957;-73
2023/08/28 11:44:55;;;;;;;;;;;;;;;-144.99;70.52;52293.19;5020714;28;20391;-74
2023/08/28 11:47:25;;;;;;;;;;;;;;;-144.99;71.70;52309.50;5025904;28;20044;-75
2023/08/28 11:49:51;;;;;;;;;;;;;;;-144.99;71.85;52195.34;5024827;28;20325;-72
2023/08/28 11:52:18;;;;;;;;;;;;;;;-144.99;71.14;52170.91;5026661;28;19958;-72
2023/08/28 11:54:44;;;;;;;;;;;;;;;-144.99;70.85;52177.00;5020410;28;20058;-73
2023/08/28 11:57:11;;;;;;;;;;;;;;;-144.99;68.57;52138.28;5024217;28;19986;-73
2023/08/28 11:59:41;;;;;;;;;;;;;;;-144.99;64.75;52128.09;5038604;28;19949;-73
2023/08/28 12:02:08;;;;;;;;;;;;;;;-144.99;65.65;52134.22;5032340;28;20443;-73
2023/08/28 12:04:36;;;;;;;;;;;;;;;-144.99;65.48;52117.91;5017512;28;19939;-73
2023/08/28 12:07:02;;;;;;;;;;;;;;;-144.99;64.86;52146.44;5030577;28;19942;-72
2023/08/28 12:09:29;;;;;;;;;;;;;;;-144.99;65.41;52183.13;5026586;28;19942;-73
2023/08/28 12:11:56;;;;;;;;;;;;;;;-144.99;65.03;52256.50;5023292;28;19975;-74
2023/08/28 12:14:25;;;;;;;;;;;;;;;-144.99;65.07;52142.38;5026376;28;19960;-74
2023/08/28 12:17:00;;;;;;;;;;;;;;;-144.99;65.27;52160.72;5023026;28;19949;-74
2023/08/28 12:19:27;;;;;;;;;;;;;;;-144.99;64.08;52105.69;5022054;28;20030;-74
2023/08/28 12:22:03;;;;;;;;;;;;;;;-144.99;62.13;52032.31;5025500;28;20376;-74